Time;durP1;ratioP1;P1;durP2;ratioP2;P2;SDS_P1;SDS_P2;PMS_P1;PMS_P2;Temp;Humidity;BMP_temperature;BMP_pressure;BME280_temperature;BME280_humidity;BME280_pressure;Samples;Min_cycle;Max_cycle;Signal;HPM_P1;HPM_P2
2024/01/08 00:01:15;;;;;;;4.68;2.50;;;-2.10;99.90;;;;;;4951813;28;20035;-76
2024/01/08 00:03:41;;;;;;;3.85;2.95;;;-2.10;99.90;;;;;;4969028;28;20069;-76
2024/01/08 00:06:07;;;;;;;4.40;2.92;;;-2.10;99.90;;;;;;4959971;28;20043;-77
2024/01/08 00:08:32;;;;;;;5.40;3.30;;;-2.20;99.90;;;;;;4963214;28;20039;-77
2024/01/08 00:10:58;;;;;;;4.68;3.10;;;-2.20;99.90;;;;;;4958069;28;20059;-77
2024/01/08 00:13:24;;;;;;;3.90;2.92;;;-2.20;99.90;;;;;;4952414;29;20027;-77
2024/01/08 00:15:49;;;;;;;4.43;2.53;;;-2.10;99.90;;;;;;4942038;28;20110;-78
2024/01/08 00:18:15;;;;;;;5.38;3.17;;;-2.10;99.90;;;;;;4963023;28;20193;-78
2024/01/08 00:20:42;;;;;;;4.75;3.40;;;-2.10;99.90;;;;;;4953307;28;20035;-78
2024/01/08 00:23:08;;;;;;;3.08;2.33;;;-2.10;99.90;;;;;;4950883;29;20054;-78
2024/01/08 00:25:33;;;;;;;5.65;2.78;;;-2.10;99.90;;;;;;4949029;28;20523;-79
2024/01/08 00:28:00;;;;;;;5.30;3.13;;;-2.10;99.90;;;;;;4950456;29;20031;-77
2024/01/08 00:30:26;;;;;;;3.97;2.70;;;-2.10;99.90;;;;;;4951548;29;20275;-77
2024/01/08 00:32:52;;;;;;;4.03;2.92;;;-2.20;99.90;;;;;;4951113;29;20027;-77
2024/01/08 00:35:18;;;;;;;5.63;2.88;;;-2.20;99.90;;;;;;4950998;29;20227;-77
2024/01/08 00:37:43;;;;;;;4.50;3.15;;;-2.20;99.90;;;;;;4951135;29;20492;-76
2024/01/08 00:40:10;;;;;;;5.10;2.60;;;-2.20;99.90;;;;;;4951589;28;20038;-77
2024/01/08 00:42:36;;;;;;;5.03;3.38;;;-2.10;99.90;;;;;;4951193;28;20058;-76
2024/01/08 00:45:03;;;;;;;3.70;2.78;;;-2.20;99.90;;;;;;4951093;29;20035;-78
2024/01/08 00:47:28;;;;;;;4.38;2.80;;;-2.20;99.90;;;;;;4951660;29;20516;-78
2024/01/08 00:49:54;;;;;;;5.07;3.03;;;-2.10;99.90;;;;;;4951881;29;20098;-76
2024/01/08 00:52:20;;;;;;;3.25;2.75;;;-2.20;99.90;;;;;;4951188;29;20134;-78
2024/01/08 00:54:45;;;;;;;6.20;2.72;;;-2.20;99.90;;;;;;4952035;28;20031;-78
2024/01/08 00:57:11;;;;;;;4.22;2.42;;;-2.20;99.90;;;;;;4949556;28;20035;-78
2024/01/08 00:59:37;;;;;;;3.83;2.85;;;-2.20;99.90;;;;;;4952506;28;20170;-78
2024/01/08 01:02:03;;;;;;;4.57;3.30;;;-2.20;99.90;;;;;;4952506;28;20130;-78
2024/01/08 01:04:29;;;;;;;4.80;3.13;;;-2.20;99.90;;;;;;4960597;28;20067;-77
2024/01/08 01:06:55;;;;;;;4.50;3.10;;;-2.20;99.90;;;;;;4958992;28;20058;-78
2024/01/08 01:09:21;;;;;;;3.97;2.63;;;-2.20;99.90;;;;;;4961045;28;20469;-78
2024/01/08 01:11:46;;;;;;;4.40;3.47;;;-2.20;99.90;;;;;;4957699;28;20122;-77
2024/01/08 01:14:12;;;;;;;7.45;3.78;;;-2.20;99.90;;;;;;4961350;28;20039;-76
2024/01/08 01:16:38;;;;;;;4.47;3.20;;;-2.20;99.90;;;;;;4961559;28;20039;-77
2024/01/08 01:19:03;;;;;;;6.07;3.40;;;-2.20;99.90;;;;;;4965442;28;20032;-77
2024/01/08 01:21:29;;;;;;;4.82;3.30;;;-2.10;99.90;;;;;;4963479;28;20037;-76
2024/01/08 01:23:55;;;;;;;4.20;3.45;;;-2.10;99.90;;;;;;4959658;28;20043;-78
2024/01/08 01:26:21;;;;;;;5.82;4.07;;;-2.20;99.90;;;;;;4947443;28;20118;-78
2024/01/08 01:28:47;;;;;;;4.65;3.22;;;-2.20;99.90;;;;;;4963253;28;20118;-75
2024/01/08 01:31:13;;;;;;;5.15;3.53;;;-2.20;99.90;;;;;;4966372;28;20118;-78
2024/01/08 01:33:39;;;;;;;5.00;3.50;;;-2.10;99.90;;;;;;4965493;28;20102;-77
2024/01/08 01:36:06;;;;;;;5.55;3.45;;;-2.10;99.90;;;;;;4966117;28;20032;-78
2024/01/08 01:38:31;;;;;;;4.53;3.15;;;-2.10;99.90;;;;;;4962811;28;20455;-77
2024/01/08 01:40:57;;;;;;;5.18;3.50;;;-2.10;99.90;;;;;;4963617;28;20149;-75
2024/01/08 01:43:28;;;;;;;6.32;3.58;;;-2.10;99.90;;;;;;4974554;28;20071;-77
2024/01/08 01:45:56;;;;;;;5.68;3.70;;;-2.10;99.90;;;;;;4977979;28;20031;-76
2024/01/08 01:48:22;;;;;;;4.65;3.50;;;-2.20;99.90;;;;;;4968812;28;20034;-78
2024/01/08 01:50:48;;;;;;;13.02;3.55;;;-2.10;99.90;;;;;;4972206;28;20091;-78
2024/01/08 01:53:14;;;;;;;5.35;3.17;;;-2.10;99.90;;;;;;4961538;28;20058;-77
2024/01/08 01:55:41;;;;;;;6.00;3.58;;;-2.10;99.90;;;;;;4964864;28;20031;-78
2024/01/08 01:58:09;;;;;;;5.90;3.80;;;-2.10;99.90;;;;;;4962823;28;20085;-78
2024/01/08 02:00:35;;;;;;;4.93;3.40;;;-2.10;99.90;;;;;;4959964;28;20034;-78
2024/01/08 02:03:03;;;;;;;9.38;3.80;;;-2.10;99.90;;;;;;4940821;28;20494;-78
2024/01/08 02:05:28;;;;;;;6.63;3.95;;;-2.10;99.90;;;;;;4935255;29;20033;-78
2024/01/08 02:07:56;;;;;;;7.22;4.00;;;-2.00;99.90;;;;;;4932793;29;20031;-77
2024/01/08 02:10:22;;;;;;;5.05;3.55;;;-2.00;99.90;;;;;;4934758;29;20027;-79
2024/01/08 02:12:47;;;;;;;5.75;3.92;;;-2.00;99.90;;;;;;4934627;29;20031;-78
2024/01/08 02:15:13;;;;;;;5.70;3.95;;;-2.00;99.90;;;;;;4932981;29;20044;-78
2024/01/08 02:17:38;;;;;;;5.63;3.75;;;-2.00;99.90;;;;;;4934327;29;20497;-79
2024/01/08 02:20:05;;;;;;;6.40;3.65;;;-2.10;99.90;;;;;;4934702;29;20030;-78
2024/01/08 02:22:30;;;;;;;5.85;3.45;;;-2.10;99.90;;;;;;4934363;29;20179;-77
2024/01/08 02:24:56;;;;;;;5.13;3.38;;;-2.00;99.90;;;;;;4933462;29;20526;-73
2024/01/08 02:27:22;;;;;;;4.25;3.40;;;-2.00;99.90;;;;;;4934052;29;20030;-77
2024/01/08 02:29:47;;;;;;;6.70;4.30;;;-2.00;99.90;;;;;;4933899;29;20167;-78
2024/01/08 02:32:13;;;;;;;6.25;3.88;;;-2.00;99.90;;;;;;4933351;29;20381;-78
2024/01/08 02:34:39;;;;;;;8.23;4.20;;;-2.00;99.90;;;;;;4934916;29;20100;-77
2024/01/08 02:37:05;;;;;;;5.25;3.83;;;-2.00;99.90;;;;;;4933694;29;20166;-78
2024/01/08 02:39:30;;;;;;;6.10;3.90;;;-1.90;99.90;;;;;;4934868;29;20024;-75
2024/01/08 02:41:56;;;;;;;4.90;3.47;;;-2.00;99.90;;;;;;4934571;29;20385;-70
2024/01/08 02:44:22;;;;;;;7.82;4.22;;;-2.00;99.90;;;;;;4933837;29;20020;-77
2024/01/08 02:46:47;;;;;;;6.07;3.85;;;-2.00;99.90;;;;;;4933278;29;20063;-78
2024/01/08 02:49:13;;;;;;;5.50;3.97;;;-2.00;99.90;;;;;;4932999;29;20062;-77
2024/01/08 02:51:39;;;;;;;4.65;3.63;;;-2.00;99.90;;;;;;4934733;29;20024;-78
2024/01/08 02:54:04;;;;;;;6.10;3.90;;;-2.00;99.90;;;;;;4932792;29;20026;-77
2024/01/08 02:56:30;;;;;;;5.45;3.55;;;-2.00;99.90;;;;;;4934097;29;20473;-77
2024/01/08 02:58:56;;;;;;;5.25;3.38;;;-2.00;99.90;;;;;;4933676;29;20038;-71
2024/01/08 03:01:21;;;;;;;4.75;3.80;;;-1.90;99.90;;;;;;4934045;29;20059;-77
2024/01/08 03:03:47;;;;;;;5.50;3.72;;;-1.90;99.90;;;;;;4950142;28;20051;-78
2024/01/08 03:06:12;;;;;;;5.63;4.18;;;-2.00;99.90;;;;;;4952585;28;20038;-77
2024/01/08 03:08:38;;;;;;;6.35;3.90;;;-2.00;99.90;;;;;;4952551;28;20027;-74
2024/01/08 03:11:04;;;;;;;6.63;4.25;;;-2.00;99.90;;;;;;4952414;28;20098;-77
2024/01/08 03:13:29;;;;;;;5.90;3.85;;;-2.00;99.90;;;;;;4952247;28;20552;-76
2024/01/08 03:15:55;;;;;;;7.97;4.38;;;-2.00;99.90;;;;;;4953266;28;20058;-77
2024/01/08 03:18:20;;;;;;;5.40;4.53;;;-2.00;99.90;;;;;;4949201;28;20042;-78
2024/01/08 03:20:46;;;;;;;7.20;4.72;;;-2.10;99.90;;;;;;4952604;28;20090;-78
2024/01/08 03:23:11;;;;;;;5.47;3.58;;;-2.10;99.90;;;;;;4950990;28;20023;-77
2024/01/08 03:25:37;;;;;;;6.75;4.43;;;-2.00;99.90;;;;;;4950813;29;20059;-77
2024/01/08 03:28:03;;;;;;;5.90;3.78;;;-1.90;99.90;;;;;;4950677;28;20548;-77
2024/01/08 03:30:28;;;;;;;7.18;4.45;;;-2.00;99.90;;;;;;4952919;28;20035;-77
2024/01/08 03:32:54;;;;;;;5.72;3.85;;;-2.00;99.90;;;;;;4952214;28;20075;-78
2024/01/08 03:35:20;;;;;;;4.93;3.58;;;-1.90;99.90;;;;;;4952327;28;20031;-77
2024/01/08 03:37:46;;;;;;;6.10;3.60;;;-1.90;99.90;;;;;;4948193;28;20024;-77
2024/01/08 03:40:12;;;;;;;5.97;3.85;;;-1.90;99.90;;;;;;4951867;28;20384;-78
2024/01/08 03:42:37;;;;;;;5.43;3.67;;;-1.90;99.90;;;;;;4952492;28;20028;-78
2024/01/08 03:45:03;;;;;;;6.40;3.88;;;-2.00;99.90;;;;;;4952097;28;20392;-78
2024/01/08 03:47:29;;;;;;;5.03;3.33;;;-1.90;99.90;;;;;;4952211;28;20034;-78
2024/01/08 03:49:55;;;;;;;4.60;3.30;;;-1.90;99.90;;;;;;4950288;29;20031;-79
2024/01/08 03:52:22;;;;;;;6.53;3.33;;;-2.00;99.90;;;;;;4950239;28;20864;-78
2024/01/08 03:54:48;;;;;;;4.85;3.30;;;-1.90;99.90;;;;;;4952570;28;20159;-78
2024/01/08 03:57:14;;;;;;;7.45;3.85;;;-1.90;99.90;;;;;;4951520;28;20114;-77
2024/01/08 03:59:41;;;;;;;5.57;3.40;;;-1.90;99.90;;;;;;4953037;28;20109;-77
2024/01/08 04:02:06;;;;;;;5.05;3.53;;;-2.00;99.90;;;;;;4956620;28;20137;-77
2024/01/08 04:04:32;;;;;;;5.50;3.38;;;-1.90;99.90;;;;;;4972012;28;20110;-78
2024/01/08 04:06:57;;;;;;;6.43;3.67;;;-2.00;99.90;;;;;;4971910;28;20039;-73
2024/01/08 04:09:23;;;;;;;4.20;3.30;;;-1.90;99.90;;;;;;4966648;28;20499;-77
2024/01/08 04:11:48;;;;;;;4.53;3.17;;;-2.00;99.90;;;;;;4953162;29;20059;-78
2024/01/08 04:14:14;;;;;;;5.85;3.60;;;-2.00;99.90;;;;;;4953818;28;20042;-77
2024/01/08 04:16:40;;;;;;;4.90;3.45;;;-1.90;99.90;;;;;;4972455;28;20035;-78
2024/01/08 04:19:06;;;;;;;5.00;3.70;;;-1.90;99.90;;;;;;4956460;28;20464;-74
2024/01/08 04:21:32;;;;;;;5.22;3.53;;;-1.90;99.90;;;;;;4962170;28;20085;-78
2024/01/08 04:23:58;;;;;;;4.95;3.10;;;-2.00;99.90;;;;;;4964006;28;20524;-72
2024/01/08 04:26:26;;;;;;;7.43;3.22;;;-1.90;99.90;;;;;;4960403;28;20441;-77
2024/01/08 04:28:52;;;;;;;4.72;3.35;;;-2.00;99.90;;;;;;4967676;28;20365;-77
2024/01/08 04:31:21;;;;;;;4.38;3.15;;;-2.00;99.90;;;;;;4962112;28;20027;-77
2024/01/08 04:33:48;;;;;;;5.75;3.60;;;-2.00;99.90;;;;;;4971200;28;20480;-74
2024/01/08 04:36:15;;;;;;;5.00;3.25;;;-2.00;99.90;;;;;;4971213;28;20035;-77
2024/01/08 04:38:41;;;;;;;5.03;3.30;;;-2.00;99.90;;;;;;4971307;28;20455;-80
2024/01/08 04:41:07;;;;;;;5.25;3.50;;;-2.00;99.90;;;;;;4969172;28;20027;-78
2024/01/08 04:43:33;;;;;;;7.10;4.00;;;-2.00;99.90;;;;;;4951870;28;20093;-78
2024/01/08 04:45:58;;;;;;;5.60;3.28;;;-2.00;99.90;;;;;;4971383;28;20396;-71
2024/01/08 04:48:24;;;;;;;6.25;2.90;;;-2.00;99.90;;;;;;4972083;28;20027;-78
2024/01/08 04:50:49;;;;;;;5.95;2.90;;;-2.10;99.90;;;;;;4975405;28;20035;-76
2024/01/08 04:53:15;;;;;;;4.57;3.50;;;-2.10;99.90;;;;;;4974512;28;20031;-78
2024/01/08 04:55:41;;;;;;;4.28;3.33;;;-2.10;99.90;;;;;;4975681;28;20078;-78
2024/01/08 04:58:06;;;;;;;5.63;3.47;;;-2.10;99.90;;;;;;4961644;28;20031;-77
2024/01/08 05:00:32;;;;;;;4.72;3.38;;;-2.10;99.90;;;;;;4971744;28;20031;-78
2024/01/08 05:02:58;;;;;;;9.70;4.32;;;-2.10;99.90;;;;;;4973897;28;20050;-70
2024/01/08 05:05:23;;;;;;;7.88;4.03;;;-2.10;99.90;;;;;;4974721;28;20053;-77
2024/01/08 05:07:49;;;;;;;5.68;3.95;;;-2.10;99.90;;;;;;4974555;28;20035;-77
2024/01/08 05:10:14;;;;;;;5.95;3.85;;;-2.10;99.90;;;;;;4967245;28;20083;-76
2024/01/08 05:12:40;;;;;;;7.25;3.90;;;-2.10;99.90;;;;;;4955666;29;20039;-77
2024/01/08 05:15:06;;;;;;;7.00;4.13;;;-2.10;99.90;;;;;;4964448;28;20469;-77
2024/01/08 05:17:32;;;;;;;5.30;3.58;;;-2.10;99.90;;;;;;4961614;28;20029;-77
2024/01/08 05:19:57;;;;;;;6.20;4.53;;;-2.10;99.90;;;;;;4965025;28;20034;-71
2024/01/08 05:22:23;;;;;;;7.28;4.28;;;-2.10;99.90;;;;;;4973852;28;20030;-78
2024/01/08 05:24:49;;;;;;;5.65;3.97;;;-2.10;99.90;;;;;;4961228;28;20059;-78
2024/01/08 05:27:15;;;;;;;6.45;3.95;;;-2.20;99.90;;;;;;4970320;28;20740;-77
2024/01/08 05:29:41;;;;;;;7.53;3.85;;;-2.20;99.90;;;;;;4964926;28;20102;-77
2024/01/08 05:32:06;;;;;;;7.47;4.75;;;-2.20;99.90;;;;;;4970960;28;20105;-78
2024/01/08 05:34:32;;;;;;;6.97;4.43;;;-2.30;99.90;;;;;;4969660;28;20511;-76
2024/01/08 05:36:58;;;;;;;7.90;4.93;;;-2.30;99.90;;;;;;4973900;28;20444;-70
2024/01/08 05:39:24;;;;;;;6.57;3.90;;;-2.30;99.90;;;;;;4974397;28;20035;-77
2024/01/08 05:41:49;;;;;;;5.75;3.58;;;-2.20;99.90;;;;;;4974557;28;20035;-77
2024/01/08 05:44:15;;;;;;;5.70;4.10;;;-2.20;99.90;;;;;;4973453;28;20037;-77
2024/01/08 05:46:44;;;;;;;5.60;3.38;;;-2.30;99.90;;;;;;4974474;28;20122;-78
2024/01/08 05:49:10;;;;;;;5.18;3.40;;;-2.20;99.90;;;;;;4965367;28;20027;-75
2024/01/08 05:51:36;;;;;;;6.20;3.33;;;-2.20;99.90;;;;;;4971083;28;20046;-77
2024/01/08 05:54:02;;;;;;;6.82;3.58;;;-2.30;99.90;;;;;;4973220;28;20047;-77
2024/01/08 05:56:28;;;;;;;6.03;3.50;;;-2.30;99.90;;;;;;4975013;28;20027;-77
2024/01/08 05:58:54;;;;;;;4.85;3.40;;;-2.30;99.90;;;;;;4974266;28;20096;-76
2024/01/08 06:01:20;;;;;;;3.83;3.03;;;-2.30;99.90;;;;;;4972166;28;20026;-76
2024/01/08 06:03:45;;;;;;;8.10;3.40;;;-2.30;99.90;;;;;;4969295;28;20540;-76
2024/01/08 06:06:15;;;;;;;8.00;3.90;;;-2.30;99.90;;;;;;4957231;28;20122;-76
2024/01/08 06:08:40;;;;;;;5.28;3.45;;;-2.30;99.90;;;;;;4956424;28;20100;-78
2024/01/08 06:11:07;;;;;;;6.75;3.78;;;-2.40;99.90;;;;;;4959227;28;20027;-78
2024/01/08 06:13:33;;;;;;;6.32;4.10;;;-2.30;99.90;;;;;;4954873;29;20372;-78
2024/01/08 06:15:58;;;;;;;8.48;4.82;;;-2.30;99.90;;;;;;4971373;28;20472;-79
2024/01/08 06:18:24;;;;;;;7.72;3.60;;;-2.30;99.90;;;;;;4965257;28;20067;-75
2024/01/08 06:20:50;;;;;;;7.72;3.70;;;-2.30;99.90;;;;;;4955824;28;20050;-76
2024/01/08 06:23:16;;;;;;;5.18;3.40;;;-2.30;99.90;;;;;;4971795;28;20520;-78
2024/01/08 06:25:42;;;;;;;5.53;3.78;;;-2.40;99.90;;;;;;4958984;28;20049;-77
2024/01/08 06:28:07;;;;;;;5.55;3.65;;;-2.40;99.90;;;;;;4973153;28;20050;-78
2024/01/08 06:30:33;;;;;;;5.68;3.15;;;-2.40;99.90;;;;;;4960795;28;20476;-78
2024/01/08 06:32:59;;;;;;;5.93;3.63;;;-2.30;99.90;;;;;;4972932;28;20034;-71
2024/01/08 06:35:24;;;;;;;4.70;3.00;;;-2.30;99.90;;;;;;4971737;28;20479;-77
2024/01/08 06:37:50;;;;;;;6.55;3.20;;;-2.30;99.90;;;;;;4963473;28;20462;-78
2024/01/08 06:40:15;;;;;;;6.72;3.10;;;-2.40;99.90;;;;;;4955823;28;20530;-75
2024/01/08 06:42:41;;;;;;;6.07;3.35;;;-2.40;99.90;;;;;;4973208;28;20429;-79
2024/01/08 06:45:07;;;;;;;4.38;2.80;;;-2.40;99.90;;;;;;4972900;28;20035;-74
2024/01/08 06:47:32;;;;;;;5.53;3.15;;;-2.40;99.90;;;;;;4973091;28;20058;-76
2024/01/08 06:49:58;;;;;;;4.50;3.13;;;-2.50;99.90;;;;;;4972965;28;20027;-80
2024/01/08 06:52:24;;;;;;;7.00;3.55;;;-2.50;99.90;;;;;;4962830;28;20496;-80
2024/01/08 06:54:49;;;;;;;5.90;3.53;;;-2.60;99.90;;;;;;4971310;28;20100;-75
2024/01/08 06:57:15;;;;;;;6.15;3.40;;;-2.60;99.90;;;;;;4974598;28;20031;-73
2024/01/08 06:59:41;;;;;;;6.40;3.60;;;-2.50;99.90;;;;;;4973070;28;20392;-75
2024/01/08 07:02:06;;;;;;;6.38;3.10;;;-2.50;99.90;;;;;;4971613;28;20062;-74
2024/01/08 07:04:32;;;;;;;7.80;3.95;;;-2.50;99.90;;;;;;4973348;28;20526;-76
2024/01/08 07:06:57;;;;;;;5.50;3.25;;;-2.50;99.90;;;;;;4972813;28;20031;-73
2024/01/08 07:09:23;;;;;;;5.90;3.80;;;-2.50;99.90;;;;;;4969220;28;20448;-80
2024/01/08 07:11:49;;;;;;;5.15;3.45;;;-2.50;99.90;;;;;;4953068;28;20154;-78
2024/01/08 07:14:14;;;;;;;5.65;3.65;;;-2.50;99.90;;;;;;4956188;28;20023;-77
2024/01/08 07:16:40;;;;;;;6.13;3.72;;;-2.50;99.90;;;;;;4961479;28;20038;-72
2024/01/08 07:19:06;;;;;;;5.70;3.45;;;-2.50;99.90;;;;;;4958618;28;20113;-71
2024/01/08 07:21:31;;;;;;;5.60;3.67;;;-2.50;99.90;;;;;;4973120;28;20038;-70
2024/01/08 07:23:58;;;;;;;5.47;3.55;;;-2.40;99.90;;;;;;4965635;28;20407;-74
2024/01/08 07:26:23;;;;;;;5.18;3.42;;;-2.50;99.90;;;;;;4960852;28;20043;-71
2024/01/08 07:28:49;;;;;;;5.40;3.30;;;-2.50;99.90;;;;;;4961835;28;20114;-77
2024/01/08 07:31:17;;;;;;;5.47;3.58;;;-2.50;99.90;;;;;;4966752;28;20082;-77
2024/01/08 07:33:43;;;;;;;5.88;3.50;;;-2.40;99.90;;;;;;4975156;28;20027;-79
2024/01/08 07:36:09;;;;;;;7.90;4.07;;;-2.50;99.90;;;;;;4963270;28;20034;-78
2024/01/08 07:38:36;;;;;;;7.43;3.70;;;-2.50;99.90;;;;;;4984580;28;20134;-78
2024/01/08 07:41:02;;;;;;;8.63;3.45;;;-2.40;99.90;;;;;;4985378;28;20031;-78
2024/01/08 07:43:28;;;;;;;6.97;3.47;;;-2.40;99.90;;;;;;4980279;28;20037;-76
2024/01/08 07:45:53;;;;;;;7.45;3.67;;;-2.40;99.90;;;;;;4966406;28;20053;-73
2024/01/08 07:48:20;;;;;;;7.35;3.88;;;-2.40;99.90;;;;;;4968216;28;20397;-77
2024/01/08 07:50:46;;;;;;;5.05;3.80;;;-2.50;99.90;;;;;;4963269;28;20039;-79
2024/01/08 07:53:12;;;;;;;6.70;3.83;;;-2.50;99.90;;;;;;4955469;28;20046;-79
2024/01/08 07:55:37;;;;;;;5.07;3.60;;;-2.40;99.90;;;;;;4947686;28;20031;-78
2024/01/08 07:58:03;;;;;;;7.53;3.92;;;-2.40;99.90;;;;;;4955774;28;20058;-77
2024/01/08 08:00:29;;;;;;;5.88;3.47;;;-2.50;99.90;;;;;;4959918;28;20042;-77
2024/01/08 08:02:54;;;;;;;5.78;3.88;;;-2.50;99.90;;;;;;4954298;28;20078;-74
2024/01/08 08:05:20;;;;;;;6.55;4.10;;;-2.50;99.90;;;;;;4943898;29;20119;-76
2024/01/08 08:07:46;;;;;;;7.10;3.72;;;-2.40;99.90;;;;;;4950592;29;20026;-77
2024/01/08 08:10:11;;;;;;;7.35;3.88;;;-2.40;99.90;;;;;;4950812;28;20118;-76
2024/01/08 08:12:37;;;;;;;6.20;3.47;;;-2.30;99.90;;;;;;4951278;28;20023;-77
2024/01/08 08:15:03;;;;;;;7.03;4.25;;;-2.40;99.90;;;;;;4952255;28;20039;-78
2024/01/08 08:17:30;;;;;;;7.28;3.35;;;-2.40;99.90;;;;;;4952124;28;20042;-79
2024/01/08 08:19:56;;;;;;;6.60;3.70;;;-2.30;99.90;;;;;;4952788;28;20488;-71
2024/01/08 08:22:22;;;;;;;6.15;3.78;;;-2.20;99.90;;;;;;4952174;28;20059;-76
2024/01/08 08:24:48;;;;;;;6.00;3.85;;;-2.20;99.90;;;;;;4952462;28;20066;-81
2024/01/08 08:27:13;;;;;;;5.10;3.42;;;-2.20;99.90;;;;;;4955396;28;20396;-75
2024/01/08 08:29:42;;;;;;;8.38;4.15;;;-2.20;99.90;;;;;;4956407;28;20102;-74
2024/01/08 08:32:08;;;;;;;7.10;4.18;;;-2.20;99.90;;;;;;4955301;28;20452;-76
2024/01/08 08:34:34;;;;;;;7.25;4.13;;;-2.20;99.90;;;;;;4955422;28;20082;-74
2024/01/08 08:37:00;;;;;;;5.22;3.35;;;-2.10;99.90;;;;;;4955374;28;20473;-74
2024/01/08 08:39:26;;;;;;;6.93;3.70;;;-2.10;99.90;;;;;;4948348;29;20476;-75
2024/01/08 08:41:51;;;;;;;6.32;3.97;;;-2.00;99.90;;;;;;4956123;29;20029;-75
2024/01/08 08:44:17;;;;;;;10.63;3.80;;;-2.10;99.90;;;;;;4954708;28;20023;-76
2024/01/08 08:46:44;;;;;;;6.53;4.00;;;-2.10;99.90;;;;;;4956063;28;20508;-72
2024/01/08 08:49:12;;;;;;;5.57;3.63;;;-2.00;99.90;;;;;;4953290;29;20443;-73
2024/01/08 08:51:37;;;;;;;6.05;3.67;;;-2.00;99.90;;;;;;4956473;28;20039;-76
2024/01/08 08:54:04;;;;;;;5.72;3.67;;;-1.90;99.90;;;;;;4954898;29;20499;-76
2024/01/08 08:56:36;;;;;;;6.63;3.85;;;-1.90;99.90;;;;;;4955718;29;20085;-72
2024/01/08 08:59:02;;;;;;;5.53;3.97;;;-1.90;99.90;;;;;;4954655;28;20055;-78
2024/01/08 09:01:28;;;;;;;6.38;4.05;;;-2.00;99.90;;;;;;4955786;28;20054;-79
2024/01/08 09:03:54;;;;;;;6.78;3.92;;;-2.00;99.90;;;;;;4955251;28;20071;-79
2024/01/08 09:06:23;;;;;;;7.05;3.72;;;-1.90;99.90;;;;;;4951661;29;20477;-80
2024/01/08 09:08:49;;;;;;;5.57;3.72;;;-1.90;99.90;;;;;;4952074;28;20043;-77
2024/01/08 09:11:14;;;;;;;6.75;3.90;;;-1.90;99.90;;;;;;4954745;29;20106;-79
2024/01/08 09:13:42;;;;;;;7.43;3.47;;;-1.80;99.90;;;;;;4954924;29;20478;-78
2024/01/08 09:16:10;;;;;;;6.20;3.80;;;-1.90;99.90;;;;;;4955023;29;20031;-78
2024/01/08 09:18:35;;;;;;;5.60;3.67;;;-1.80;99.90;;;;;;4954854;28;20042;-79
2024/01/08 09:21:01;;;;;;;6.10;4.10;;;-1.80;99.90;;;;;;4955644;28;20039;-78
2024/01/08 09:23:27;;;;;;;5.65;3.70;;;-1.90;99.90;;;;;;4954791;28;20094;-78
2024/01/08 09:25:52;;;;;;;7.32;4.10;;;-1.80;99.90;;;;;;4946126;29;20050;-78
2024/01/08 09:28:18;;;;;;;10.13;3.92;;;-1.90;99.90;;;;;;4951728;28;20037;-76
2024/01/08 09:30:44;;;;;;;7.30;3.80;;;-1.90;99.90;;;;;;4954258;29;20027;-77
2024/01/08 09:33:10;;;;;;;6.63;3.85;;;-1.80;99.90;;;;;;4954246;28;20024;-78
2024/01/08 09:35:36;;;;;;;7.85;4.10;;;-1.80;99.90;;;;;;4954598;28;20443;-80
2024/01/08 09:38:02;;;;;;;8.25;4.13;;;-1.70;99.90;;;;;;4954302;28;20057;-78
2024/01/08 09:40:28;;;;;;;7.47;4.00;;;-1.80;99.90;;;;;;4955004;28;20102;-77
2024/01/08 09:42:59;;;;;;;5.57;3.88;;;-1.70;99.90;;;;;;4954633;28;20047;-76
2024/01/08 09:45:26;;;;;;;8.23;4.18;;;-1.50;99.90;;;;;;4954688;28;20043;-74
2024/01/08 09:47:54;;;;;;;6.95;4.22;;;-1.50;99.90;;;;;;4954487;28;20093;-74
2024/01/08 09:50:21;;;;;;;6.10;3.95;;;-1.50;99.90;;;;;;4954163;28;20035;-74
2024/01/08 09:52:49;;;;;;;6.13;4.05;;;-1.50;99.90;;;;;;4954489;28;20031;-74
2024/01/08 09:55:15;;;;;;;6.88;3.95;;;-1.50;99.90;;;;;;4954180;28;20118;-74
2024/01/08 09:57:41;;;;;;;8.45;3.90;;;-1.50;99.90;;;;;;4948240;29;20094;-74
2024/01/08 10:00:07;;;;;;;7.88;3.50;;;-1.50;99.90;;;;;;4953995;28;20031;-74
2024/01/08 10:02:34;;;;;;;7.28;4.13;;;-1.50;99.90;;;;;;4954095;28;20316;-73
2024/01/08 10:05:00;;;;;;;6.97;4.13;;;-1.60;99.90;;;;;;4951945;28;20032;-75
2024/01/08 10:07:26;;;;;;;8.20;3.95;;;-1.50;99.90;;;;;;4952272;28;20097;-74
2024/01/08 10:09:52;;;;;;;5.78;3.63;;;-1.50;99.90;;;;;;4954337;28;20027;-75
2024/01/08 10:12:17;;;;;;;6.15;3.00;;;-1.60;99.90;;;;;;4953234;29;20027;-73
2024/01/08 10:14:44;;;;;;;6.15;3.45;;;-1.60;99.90;;;;;;4954185;28;20389;-74
2024/01/08 10:17:14;;;;;;;4.53;3.28;;;-1.70;99.90;;;;;;4953013;28;20035;-76
2024/01/08 10:19:40;;;;;;;6.75;3.80;;;-1.60;99.90;;;;;;4954707;28;20054;-74
2024/01/08 10:22:06;;;;;;;5.55;3.47;;;-1.60;99.90;;;;;;4968476;28;20023;-79
2024/01/08 10:24:31;;;;;;;4.55;2.95;;;-1.50;99.90;;;;;;4951449;28;20027;-80
2024/01/08 10:26:57;;;;;;;6.78;3.17;;;-1.50;99.90;;;;;;4953536;28;20043;-76
2024/01/08 10:29:24;;;;;;;4.18;3.00;;;-1.40;99.90;;;;;;4954010;28;20031;-77
2024/01/08 10:31:50;;;;;;;4.75;3.20;;;-1.30;99.90;;;;;;4950386;28;20020;-76
2024/01/08 10:34:16;;;;;;;5.60;3.40;;;-1.30;99.90;;;;;;4952876;28;20338;-76
2024/01/08 10:36:43;;;;;;;7.93;4.18;;;-1.30;99.90;;;;;;4954064;28;20035;-75
2024/01/08 10:39:09;;;;;;;6.35;3.78;;;-1.30;99.90;;;;;;4953064;28;20130;-75
2024/01/08 10:41:36;;;;;;;5.22;3.45;;;-1.20;99.90;;;;;;4953926;28;20034;-75
2024/01/08 10:44:02;;;;;;;6.18;3.88;;;-1.10;99.90;;;;;;4949310;28;20046;-76
2024/01/08 10:46:34;;;;;;;4.80;3.53;;;-1.10;99.90;;;;;;4952211;28;20441;-75
2024/01/08 10:49:01;;;;;;;5.38;3.15;;;-1.20;99.90;;;;;;4945301;28;20474;-75
2024/01/08 10:51:27;;;;;;;4.90;3.40;;;-1.20;99.90;;;;;;4943899;29;20440;-76
2024/01/08 10:53:55;;;;;;;6.40;3.00;;;-1.30;99.90;;;;;;4954552;28;20401;-76
2024/01/08 10:56:26;;;;;;;6.70;4.22;;;-1.40;99.90;;;;;;4953712;28;20043;-77
2024/01/08 10:59:05;;;;;;;9.63;4.55;;;-1.50;99.90;;;;;;4952386;28;20473;-73
2024/01/08 11:01:32;;;;;;;6.00;3.83;;;-1.50;99.90;;;;;;4953007;28;20038;-73
2024/01/08 11:04:05;;;;;;;8.80;3.92;;;-1.40;99.90;;;;;;4952757;28;20081;-73
2024/01/08 11:06:36;;;;;;;7.53;4.28;;;-1.30;99.90;;;;;;4950924;29;20121;-73
2024/01/08 11:09:02;;;;;;;6.15;3.85;;;-1.20;99.90;;;;;;4952586;28;20113;-74
2024/01/08 11:11:28;;;;;;;6.53;3.65;;;-1.20;99.90;;;;;;4943181;28;20042;-75
2024/01/08 11:13:54;;;;;;;6.60;3.72;;;-1.20;99.90;;;;;;4952471;29;20379;-73
2024/01/08 11:16:28;;;;;;;7.20;3.92;;;-1.10;99.90;;;;;;4951951;28;20035;-74
2024/01/08 11:19:32;;;;;;;6.95;3.50;;;-1.10;99.90;;;;;;4952903;28;20105;-73
2024/01/08 11:22:10;;;;;;;4.93;3.17;;;-1.10;99.90;;;;;;4893136;29;20379;-71
2024/01/08 11:24:36;;;;;;;6.75;3.50;;;-1.10;99.90;;;;;;4893570;29;20033;-72
2024/01/08 11:27:02;;;;;;;5.47;3.75;;;-1.10;99.90;;;;;;4892314;29;20075;-72
2024/01/08 11:29:27;;;;;;;7.10;3.90;;;-1.00;99.90;;;;;;4893188;29;20143;-71
2024/01/08 11:32:23;;;;;;;8.73;4.25;;;-1.00;99.90;;;;;;4893571;29;20033;-70
2024/01/08 11:35:03;;;;;;;8.07;3.60;;;-0.90;99.90;;;;;;4891032;29;20052;-73
2024/01/08 11:37:40;;;;;;;5.93;3.63;;;-1.00;99.90;;;;;;4892825;29;20025;-72
2024/01/08 11:40:19;;;;;;;7.45;4.10;;;-1.00;99.90;;;;;;4892780;29;20041;-70
2024/01/08 11:42:47;;;;;;;4.53;3.10;;;-1.00;99.90;;;;;;4892923;29;20032;-70
2024/01/08 11:45:13;;;;;;;5.15;3.63;;;-0.90;99.90;;;;;;4874246;29;20128;-70
2024/01/08 11:47:39;;;;;;;8.50;3.92;;;-0.90;99.90;;;;;;4893210;29;20123;-70
2024/01/08 11:50:06;;;;;;;4.78;3.25;;;-0.80;99.90;;;;;;4892827;29;20033;-71
2024/01/08 11:52:35;;;;;;;9.43;3.30;;;-0.70;99.90;;;;;;4909584;29;20040;-71
2024/01/08 11:55:03;;;;;;;;;;;-0.60;99.90;;;;;;4951712;29;20035;-70
2024/01/08 11:57:29;;;;;;;7.97;3.30;;;-0.60;99.90;;;;;;4951082;28;19913;-71
2024/01/08 11:59:55;;;;;;;6.30;3.10;;;-0.60;99.90;;;;;;4952342;28;20028;-71
2024/01/08 12:02:28;;;;;;;7.70;3.67;;;-0.60;99.90;;;;;;4951132;28;20059;-70
2024/01/08 12:04:59;;;;;;;4.47;2.83;;;-0.60;99.90;;;;;;4955158;28;20038;-71
2024/01/08 12:07:26;;;;;;;8.30;3.70;;;-0.70;99.90;;;;;;4952264;29;20106;-70
2024/01/08 12:09:52;;;;;;;7.03;3.33;;;-0.80;99.90;;;;;;4951203;28;20042;-71
2024/01/08 12:12:19;;;;;;;5.32;3.22;;;-0.70;99.90;;;;;;4945025;29;20032;-70
2024/01/08 12:14:48;;;;;;;5.82;3.65;;;-0.70;99.90;;;;;;4952285;28;20039;-70
2024/01/08 12:17:16;;;;;;;5.63;3.17;;;-0.60;99.90;;;;;;4948724;29;20062;-70
2024/01/08 12:19:50;;;;;;;5.53;3.10;;;-0.60;99.90;;;;;;4946718;28;20034;-70
2024/01/08 12:22:19;;;;;;;6.15;3.40;;;-0.50;99.90;;;;;;4951645;28;20173;-69
2024/01/08 12:24:51;;;;;;;4.60;3.33;;;-0.50;99.90;;;;;;4952485;28;20512;-69
2024/01/08 12:27:19;;;;;;;8.23;3.75;;;-0.50;99.90;;;;;;4949951;28;20872;-71
2024/01/08 12:29:46;;;;;;;7.70;3.30;;;-0.40;99.90;;;;;;4953583;28;20114;-70
2024/01/08 12:32:18;;;;;;;4.85;2.88;;;-0.40;99.90;;;;;;4951822;28;20031;-71
2024/01/08 12:34:44;;;;;;;5.03;2.97;;;-0.30;99.90;;;;;;4952475;28;20043;-71
2024/01/08 12:37:13;;;;;;;6.53;3.20;;;-0.30;99.90;;;;;;4951485;28;20042;-71
2024/01/08 12:39:39;;;;;;;5.13;3.28;;;-0.20;99.90;;;;;;4953479;28;20031;-71
2024/01/08 12:42:12;;;;;;;5.50;2.83;;;-0.20;99.90;;;;;;4951150;28;20118;-71
2024/01/08 12:44:38;;;;;;;4.55;2.85;;;-0.40;99.90;;;;;;4948452;29;20035;-70